Time;durP1;ratioP1;P1;durP2;ratioP2;P2;SDS_P1;SDS_P2;PMS_P1;PMS_P2;Temp;Humidity;BMP_temperature;BMP_pressure;BME280_temperature;BME280_humidity;BME280_pressure;Samples;Min_cycle;Max_cycle;Signal;HPM_P1;HPM_P2
2022/08/28 00:02:45;;;;;;;7.60;2.22;;;19.90;83.40;;;;;;10442721;28;20393;-61
2022/08/28 00:07:46;;;;;;;2.67;1.77;;;19.90;83.40;;;;;;10449949;28;20080;-61
2022/08/28 00:12:48;;;;;;;3.63;1.85;;;19.90;83.40;;;;;;10454511;28;20083;-62
2022/08/28 00:17:49;;;;;;;3.50;2.00;;;19.90;83.40;;;;;;10449216;28;20025;-61
2022/08/28 00:22:50;;;;;;;5.05;2.03;;;19.80;83.40;;;;;;10456472;28;20436;-62
2022/08/28 00:27:57;;;;;;;5.63;1.85;;;19.80;84.00;;;;;;10460569;28;20082;-61
2022/08/28 00:33:04;;;;;;;4.43;2.00;;;19.80;83.50;;;;;;10458584;28;20135;-61
2022/08/28 00:38:05;;;;;;;2.97;2.13;;;19.80;83.50;;;;;;10448006;28;20124;-61
2022/08/28 00:43:07;;;;;;;3.60;1.85;;;19.70;83.40;;;;;;10458659;28;20024;-61
2022/08/28 00:48:08;;;;;;;3.53;1.83;;;19.70;83.50;;;;;;10446954;28;20025;-61
2022/08/28 00:53:09;;;;;;;5.07;1.58;;;19.70;83.50;;;;;;10452880;28;20099;-62
2022/08/28 00:58:10;;;;;;;3.97;1.98;;;19.70;83.50;;;;;;10451642;28;20040;-61
2022/08/28 01:03:11;;;;;;;4.82;2.17;;;19.70;83.60;;;;;;10444390;28;20024;-61
2022/08/28 01:08:12;;;;;;;3.42;2.00;;;19.60;83.50;;;;;;10449766;28;20437;-62
2022/08/28 01:13:14;;;;;;;4.80;1.65;;;19.60;83.60;;;;;;10445960;28;20103;-61
2022/08/28 01:18:16;;;;;;;3.83;2.10;;;19.60;83.60;;;;;;10456897;28;20021;-64
2022/08/28 01:23:35;;;;;;;5.95;2.13;;;19.50;83.50;;;;;;10450827;28;20025;-62
2022/08/28 01:28:36;;;;;;;3.42;1.75;;;19.50;83.60;;;;;;10439935;28;20033;-61
2022/08/28 01:33:38;;;;;;;5.32;1.75;;;19.50;83.60;;;;;;10452524;28;20044;-63
2022/08/28 01:38:41;;;;;;;6.80;2.03;;;19.50;83.70;;;;;;10453037;28;20041;-62
2022/08/28 01:43:42;;;;;;;3.58;2.17;;;19.50;83.60;;;;;;10452891;28;20464;-62
2022/08/28 01:48:43;;;;;;;4.18;1.80;;;19.50;83.60;;;;;;10453554;28;20025;-62
2022/08/28 01:53:44;;;;;;;3.90;1.60;;;19.40;83.60;;;;;;10447219;28;20036;-61
2022/08/28 01:58:46;;;;;;;3.03;1.80;;;19.40;83.60;;;;;;10449755;28;20031;-61
2022/08/28 02:03:48;;;;;;;3.35;1.73;;;19.40;83.70;;;;;;10448722;28;20033;-62
2022/08/28 02:08:53;;;;;;;4.15;1.63;;;19.40;83.70;;;;;;10452835;28;20033;-61
2022/08/28 02:13:54;;;;;;;3.85;1.63;;;19.40;83.70;;;;;;10456522;28;20107;-61
2022/08/28 02:18:55;;;;;;;3.13;1.55;;;19.30;83.70;;;;;;10450950;28;20178;-62
2022/08/28 02:23:56;;;;;;;3.35;1.90;;;19.30;83.70;;;;;;10449762;28;20029;-61
2022/08/28 02:28:57;;;;;;;5.93;2.00;;;19.30;83.80;;;;;;10448030;28;20021;-61
2022/08/28 02:33:58;;;;;;;3.30;2.00;;;19.30;83.70;;;;;;10445276;28;20033;-62
2022/08/28 02:38:59;;;;;;;4.22;1.92;;;19.30;83.80;;;;;;10443145;28;20493;-61
2022/08/28 02:44:00;;;;;;;4.55;1.75;;;19.20;83.70;;;;;;10440101;28;20417;-61
2022/08/28 02:49:00;;;;;;;4.57;1.90;;;19.20;83.70;;;;;;10443945;28;20032;-61
2022/08/28 02:54:02;;;;;;;4.68;1.92;;;19.20;83.70;;;;;;10442999;28;20390;-61
2022/08/28 02:59:03;;;;;;;4.53;1.80;;;19.20;83.70;;;;;;10447602;28;20027;-61
2022/08/28 03:04:04;;;;;;;4.55;1.90;;;19.20;83.80;;;;;;10445060;28;20033;-61
2022/08/28 03:09:05;;;;;;;3.33;1.75;;;19.20;83.80;;;;;;10442617;28;20021;-62
2022/08/28 03:14:06;;;;;;;2.95;1.35;;;19.10;83.70;;;;;;10448228;28;20041;-61
2022/08/28 03:19:07;;;;;;;4.18;2.05;;;19.10;83.70;;;;;;10440520;28;20052;-62
2022/08/28 03:24:08;;;;;;;2.13;1.50;;;19.10;83.70;;;;;;10439892;28;20030;-62
2022/08/28 03:29:09;;;;;;;3.17;1.58;;;19.10;83.80;;;;;;10435269;28;20465;-61
2022/08/28 03:34:09;;;;;;;3.53;1.50;;;19.10;83.80;;;;;;10428633;28;20049;-61
2022/08/28 03:39:10;;;;;;;3.53;1.60;;;19.10;83.80;;;;;;10450365;28;20041;-62
2022/08/28 03:44:11;;;;;;;2.90;1.60;;;19.00;83.80;;;;;;10425955;28;20052;-63
2022/08/28 03:49:12;;;;;;;4.80;1.90;;;19.00;83.70;;;;;;10444857;28;20123;-64
2022/08/28 03:54:12;;;;;;;2.70;1.42;;;19.00;83.70;;;;;;10439731;28;20425;-62
2022/08/28 03:59:13;;;;;;;3.45;1.85;;;19.00;83.70;;;;;;10432801;28;20025;-61
2022/08/28 04:04:15;;;;;;;3.75;1.65;;;18.90;83.70;;;;;;10440478;28;20163;-62
2022/08/28 04:09:16;;;;;;;3.38;1.50;;;18.90;83.70;;;;;;10453590;28;20047;-63
2022/08/28 04:14:16;;;;;;;3.25;1.60;;;18.90;83.70;;;;;;10443660;28;20144;-62
2022/08/28 04:19:17;;;;;;;3.25;1.40;;;18.90;83.70;;;;;;10456975;28;20469;-64
2022/08/28 04:24:18;;;;;;;2.40;1.15;;;18.90;83.70;;;;;;10440641;28;20537;-62
2022/08/28 04:29:19;;;;;;;3.78;1.40;;;18.80;83.60;;;;;;10421779;28;20067;-61
2022/08/28 04:34:19;;;;;;;2.72;1.23;;;18.80;83.70;;;;;;10448569;28;20374;-62
2022/08/28 04:39:20;;;;;;;2.95;1.48;;;18.80;83.60;;;;;;10425861;28;20506;-64
2022/08/28 04:44:21;;;;;;;3.38;1.60;;;18.80;83.60;;;;;;10393480;28;20022;-61
2022/08/28 04:49:22;;;;;;;3.85;1.58;;;18.80;83.60;;;;;;10395265;28;20033;-62
2022/08/28 04:54:23;;;;;;;4.00;1.42;;;18.70;83.50;;;;;;10394851;28;20275;-61
2022/08/28 04:59:23;;;;;;;2.85;1.65;;;18.70;83.50;;;;;;10400605;28;20933;-61
2022/08/28 05:04:25;;;;;;;3.45;1.60;;;18.70;83.50;;;;;;10324586;28;20033;-62
2022/08/28 05:09:26;;;;;;;2.92;1.50;;;18.70;83.60;;;;;;10317118;28;20032;-62
2022/08/28 05:14:27;;;;;;;2.72;1.23;;;18.70;83.60;;;;;;10299721;28;20452;-62
2022/08/28 05:19:27;;;;;;;4.85;1.92;;;18.70;83.50;;;;;;10317706;28;20161;-62
2022/08/28 05:24:31;;;;;;;3.95;2.00;;;18.80;83.70;;;;;;10317154;28;20154;-62
2022/08/28 05:29:32;;;;;;;3.33;1.33;;;18.70;83.60;;;;;;10317164;28;20072;-61
2022/08/28 05:34:33;;;;;;;2.65;1.15;;;18.70;83.50;;;;;;10318609;28;20421;-61
2022/08/28 05:39:33;;;;;;;1.90;1.33;;;18.70;83.60;;;;;;10328913;28;20049;-61
2022/08/28 05:44:34;;;;;;;2.97;1.52;;;18.70;83.60;;;;;;10359252;28;20045;-61
2022/08/28 05:49:35;;;;;;;3.33;1.50;;;18.70;83.60;;;;;;10364040;28;20059;-62
2022/08/28 05:54:36;;;;;;;4.03;2.05;;;18.70;83.60;;;;;;10362059;28;20159;-61
2022/08/28 05:59:36;;;;;;;4.25;1.58;;;18.70;83.60;;;;;;10346858;28;20425;-61
2022/08/28 06:04:39;;;;;;;4.25;1.90;;;18.70;83.60;;;;;;10365831;28;20283;-62
2022/08/28 06:09:40;;;;;;;6.05;1.20;;;18.70;83.50;;;;;;10369019;28;20551;-62
2022/08/28 06:14:41;;;;;;;4.75;1.52;;;18.70;83.60;;;;;;10372283;28;20087;-62
2022/08/28 06:19:42;;;;;;;2.80;1.60;;;18.70;83.60;;;;;;10383235;22;20457;-61
2022/08/28 06:24:43;;;;;;;2.35;1.30;;;18.70;83.60;;;;;;10360172;28;20137;-62
2022/08/28 06:29:44;;;;;;;2.00;1.10;;;18.70;83.60;;;;;;10355464;28;20585;-61
2022/08/28 06:34:45;;;;;;;2.47;1.25;;;18.80;83.70;;;;;;10355634;28;20391;-62
2022/08/28 06:39:46;;;;;;;4.40;1.30;;;18.80;83.70;;;;;;10362016;28;20902;-62
2022/08/28 06:44:47;;;;;;;1.80;1.23;;;18.80;83.70;;;;;;10357832;28;20036;-61
2022/08/28 06:49:48;;;;;;;1.63;0.93;;;18.80;83.70;;;;;;10348533;28;20132;-61
2022/08/28 06:54:49;;;;;;;3.13;1.10;;;18.80;83.70;;;;;;10350621;28;20324;-61
2022/08/28 06:59:54;;;;;;;1.83;1.00;;;18.80;83.70;;;;;;10355012;28;20531;-62
2022/08/28 07:04:55;;;;;;;2.42;1.33;;;18.80;83.70;;;;;;10354383;28;20560;-61
2022/08/28 07:09:55;;;;;;;2.53;1.08;;;18.80;83.70;;;;;;10366490;28;20563;-61
2022/08/28 07:14:56;;;;;;;2.65;1.23;;;18.90;83.80;;;;;;10349533;28;20045;-61
2022/08/28 07:19:57;;;;;;;3.97;1.23;;;18.90;83.70;;;;;;10352115;28;20344;-61
2022/08/28 07:24:58;;;;;;;4.57;1.30;;;19.00;83.80;;;;;;10358644;28;20279;-60
2022/08/28 07:30:00;;;;;;;3.88;1.20;;;19.00;83.80;;;;;;10351226;28;20031;-61
2022/08/28 07:35:01;;;;;;;2.40;1.00;;;19.00;83.80;;;;;;10341352;28;20045;-61
2022/08/28 07:40:03;;;;;;;3.50;1.33;;;19.00;83.80;;;;;;10358490;28;21034;-61
2022/08/28 07:45:04;;;;;;;1.27;0.98;;;19.40;83.90;;;;;;10362466;28;20060;-60
2022/08/28 07:50:05;;;;;;;3.88;1.27;;;19.20;84.40;;;;;;10343271;28;20034;-61
2022/08/28 07:55:06;;;;;;;1.60;1.00;;;19.20;83.80;;;;;;10372270;28;20055;-61
2022/08/28 08:00:08;;;;;;;2.47;0.90;;;19.20;83.90;;;;;;10361975;28;20267;-61
2022/08/28 08:05:10;;;;;;;1.92;1.00;;;19.20;83.90;;;;;;10368111;28;20025;-60
2022/08/28 08:10:13;;;;;;;3.53;1.30;;;19.30;83.90;;;;;;10356365;28;20020;-60
2022/08/28 08:15:14;;;;;;;2.95;1.20;;;19.30;84.00;;;;;;10342507;28;20045;-61
2022/08/28 08:20:15;;;;;;;3.70;1.00;;;19.30;84.00;;;;;;10329629;28;20156;-61
2022/08/28 08:25:15;;;;;;;2.28;1.05;;;19.40;83.90;;;;;;10354220;28;20033;-62
2022/08/28 08:30:16;;;;;;;1.83;1.25;;;19.40;83.90;;;;;;10353701;28;20059;-62
2022/08/28 08:35:17;;;;;;;2.97;0.98;;;19.40;83.90;;;;;;10361648;28;20045;-61
2022/08/28 08:40:19;;;;;;;2.63;1.10;;;19.50;84.10;;;;;;10362134;28;20041;-62
2022/08/28 08:45:25;;;;;;;1.60;0.90;;;19.50;83.90;;;;;;10328299;28;20530;-62
2022/08/28 08:50:30;;;;;;;1.70;1.00;;;19.60;84.00;;;;;;10347886;28;20063;-62
2022/08/28 08:55:34;;;;;;;1.65;0.82;;;19.60;84.10;;;;;;10346984;28;20044;-61
2022/08/28 09:01:03;;;;;;;2.83;1.02;;;19.70;84.10;;;;;;10356450;28;20028;-62
2022/08/28 09:06:08;;;;;;;3.08;0.80;;;19.80;84.50;;;;;;10362408;28;20464;-62
2022/08/28 09:11:39;;;;;;;1.63;0.90;;;19.80;84.10;;;;;;10345365;28;20026;-62
2022/08/28 09:16:43;;;;;;;2.15;0.82;;;19.70;84.20;;;;;;10348569;28;20271;-62
2022/08/28 09:21:46;;;;;;;1.63;0.75;;;19.70;84.10;;;;;;10336550;28;20431;-62
2022/08/28 09:26:52;;;;;;;1.38;0.90;;;19.80;84.10;;;;;;10347488;28;20041;-64
2022/08/28 09:31:56;;;;;;;1.77;0.85;;;19.80;84.00;;;;;;10351392;28;21082;-62
2022/08/28 09:36:58;;;;;;;1.77;0.80;;;19.80;84.00;;;;;;10352357;28;20301;-63
2022/08/28 09:47:42;;;;;;;4.25;1.00;;;19.90;83.90;;;;;;10361232;28;20488;-63
2022/08/28 09:52:43;;;;;;;2.58;1.08;;;20.00;83.70;;;;;;10357956;28;20292;-63
2022/08/28 09:57:45;;;;;;;4.25;1.20;;;20.00;83.60;;;;;;10351288;28;20600;-62
2022/08/28 10:03:03;;;;;;;2.38;1.10;;;20.10;84.20;;;;;;10358583;28;20033;-62
2022/08/28 10:08:26;;;;;;;2.00;0.80;;;20.10;83.40;;;;;;10353711;28;20028;-63
2022/08/28 10:13:31;;;;;;;5.28;1.20;;;20.10;83.40;;;;;;10356179;28;20048;-63
2022/08/28 10:19:10;;;;;;;2.50;0.95;;;20.10;83.40;;;;;;10354767;28;20049;-63
2022/08/28 10:24:23;;;;;;;2.78;0.70;;;20.20;83.20;;;;;;10358888;28;20025;-62
2022/08/28 10:29:48;;;;;;;4.70;1.10;;;20.30;83.10;;;;;;10349674;28;20063;-63
2022/08/28 10:35:37;;;;;;;2.33;0.95;;;20.40;82.90;;;;;;10345479;28;20061;-62
2022/08/28 10:40:46;;;;;;;2.17;0.80;;;20.40;82.80;;;;;;10345496;28;20037;-62
2022/08/28 10:45:50;;;;;;;3.55;0.80;;;20.40;82.90;;;;;;10351610;28;20463;-62
2022/08/28 10:51:04;;;;;;;2.25;1.00;;;20.40;83.10;;;;;;10349048;28;20384;-63
2022/08/28 10:56:22;;;;;;;1.40;0.88;;;20.40;82.90;;;;;;10354232;28;20041;-63
2022/08/28 11:01:37;;;;;;;1.17;0.90;;;20.50;82.80;;;;;;10355711;28;20144;-63
2022/08/28 11:06:47;;;;;;;2.95;0.90;;;20.50;82.90;;;;;;10340935;28;20033;-62
2022/08/28 11:11:49;;;;;;;2.75;0.82;;;20.50;83.00;;;;;;10342300;28;20544;-62
2022/08/28 11:16:51;;;;;;;2.42;1.10;;;20.50;83.10;;;;;;10345863;28;20041;-62
2022/08/28 11:22:20;;;;;;;2.47;0.80;;;20.50;82.90;;;;;;10353392;28;20464;-62
2022/08/28 11:27:33;;;;;;;2.90;1.00;;;20.60;82.80;;;;;;10316078;28;20461;-62
2022/08/28 11:32:36;;;;;;;2.63;1.00;;;20.70;82.60;;;;;;10354601;28;20586;-63
2022/08/28 11:37:50;;;;;;;4.85;1.05;;;20.70;82.50;;;;;;10350970;28;20806;-64
2022/08/28 11:42:51;;;;;;;1.88;1.08;;;20.80;82.30;;;;;;10329808;28;20037;-63
2022/08/28 11:47:55;;;;;;;4.32;1.00;;;20.90;82.20;;;;;;10346742;28;20402;-63
2022/08/28 11:53:37;;;;;;;3.15;1.08;;;21.00;82.10;;;;;;10346247;28;20335;-62
2022/08/28 11:59:04;;;;;;;2.47;1.08;;;21.00;81.60;;;;;;10328718;28;20213;-62
2022/08/28 12:04:12;;;;;;;3.25;1.00;;;21.00;81.80;;;;;;10349581;28;20666;-62
2022/08/28 12:09:25;;;;;;;2.47;0.80;;;21.00;81.80;;;;;;10385605;28;20957;-62
2022/08/28 12:14:26;;;;;;;2.38;1.10;;;21.00;81.60;;;;;;10348181;28;20139;-61
2022/08/28 12:19:45;;;;;;;2.85;1.23;;;21.00;81.60;;;;;;10365317;28;20044;-61
2022/08/28 12:24:56;;;;;;;5.28;1.33;;;21.00;81.30;;;;;;10362975;28;20041;-61
2022/08/28 12:29:59;;;;;;;2.95;1.00;;;21.00;81.60;;;;;;10343000;28;20034;-61
2022/08/28 12:35:00;;;;;;;2.75;0.98;;;21.00;81.60;;;;;;10348947;28;20049;-61
2022/08/28 12:40:18;;;;;;;3.70;1.00;;;21.10;81.70;;;;;;10357315;28;20028;-61
2022/08/28 12:45:30;;;;;;;1.00;0.80;;;21.20;81.40;;;;;;10346664;28;20335;-61
2022/08/28 12:50:35;;;;;;;1.90;0.95;;;21.30;81.00;;;;;;10351407;28;20095;-61
2022/08/28 12:55:37;;;;;;;2.28;0.95;;;21.30;80.70;;;;;;10368104;28;20965;-61
2022/08/28 13:00:53;;;;;;;2.30;0.70;;;21.30;80.80;;;;;;10378415;28;20067;-61
2022/08/28 13:06:04;;;;;;;3.05;1.10;;;21.30;80.70;;;;;;10361160;28;20025;-61
2022/08/28 13:11:05;;;;;;;2.50;1.20;;;21.40;80.70;;;;;;10349146;28;20128;-61
2022/08/28 13:16:09;;;;;;;1.77;0.90;;;21.30;80.90;;;;;;10350000;28;21332;-61
2022/08/28 13:21:13;;;;;;;3.35;1.15;;;21.40;81.10;;;;;;10342756;28;20040;-61
2022/08/28 13:26:27;;;;;;;2.72;1.15;;;21.50;81.00;;;;;;10352576;28;20707;-61
2022/08/28 13:31:31;;;;;;;1.33;0.90;;;21.60;80.70;;;;;;10357843;28;20086;-62
2022/08/28 13:36:44;;;;;;;3.15;1.10;;;21.50;80.60;;;;;;10358890;28;20198;-57
2022/08/28 13:41:52;;;;;;;1.25;0.82;;;21.50;80.50;;;;;;10350106;28;20025;-62
2022/08/28 13:46:54;;;;;;;3.22;1.05;;;21.50;81.10;;;;;;10346497;28;20192;-62
2022/08/28 13:51:59;;;;;;;2.92;1.10;;;21.60;80.90;;;;;;10354645;28;20998;-62
2022/08/28 13:57:01;;;;;;;1.30;0.70;;;21.50;80.80;;;;;;10355443;28;20036;-62
2022/08/28 14:07:25;;;;;;;3.90;0.90;;;21.50;80.80;;;;;;10349010;28;20051;-63
2022/08/28 14:12:26;;;;;;;2.35;0.80;;;21.60;80.90;;;;;;10367190;28;20044;-63
2022/08/28 14:17:27;;;;;;;2.30;1.10;;;21.80;80.50;;;;;;10352075;28;20063;-62
2022/08/28 14:22:29;;;;;;;2.35;0.90;;;21.70;80.40;;;;;;10352276;28;20024;-61
2022/08/28 14:27:30;;;;;;;2.08;0.90;;;21.80;80.20;;;;;;10354789;28;20033;-63
2022/08/28 14:32:31;;;;;;;1.02;0.68;;;21.90;79.90;;;;;;10349602;28;20449;-64
2022/08/28 14:37:32;;;;;;;1.75;0.90;;;21.90;80.10;;;;;;10360106;28;20175;-64
2022/08/28 14:42:33;;;;;;;1.10;0.82;;;22.00;80.10;;;;;;10345880;28;20048;-62
2022/08/28 14:47:34;;;;;;;2.53;0.82;;;22.10;79.80;;;;;;10355416;28;20075;-62
2022/08/28 14:52:36;;;;;;;1.55;0.80;;;22.20;79.80;;;;;;10342372;28;20041;-62
2022/08/28 14:57:37;;;;;;;1.50;0.65;;;22.20;79.80;;;;;;10346036;28;20905;-62
2022/08/28 15:02:38;;;;;;;1.70;0.88;;;22.20;79.80;;;;;;10345990;28;20032;-63
2022/08/28 15:07:38;;;;;;;1.63;0.80;;;22.10;79.80;;;;;;10347184;28;20052;-63
2022/08/28 15:12:39;;;;;;;2.13;0.70;;;22.20;79.80;;;;;;10341065;28;20091;-62
2022/08/28 15:17:40;;;;;;;1.55;0.90;;;22.50;80.00;;;;;;10359539;28;20588;-62
2022/08/28 15:22:41;;;;;;;3.38;0.95;;;22.30;79.80;;;;;;10355795;28;20204;-62
2022/08/28 15:27:41;;;;;;;2.08;0.60;;;22.40;79.90;;;;;;10345884;28;20267;-61
2022/08/28 15:32:44;;;;;;;6.32;0.73;;;22.30;79.90;;;;;;10351788;28;20135;-62
2022/08/28 15:37:46;;;;;;;1.70;0.70;;;22.30;79.90;;;;;;10371740;28;20135;-63
2022/08/28 15:42:47;;;;;;;2.10;1.00;;;22.30;80.10;;;;;;10359684;28;20040;-63
2022/08/28 15:47:49;;;;;;;1.92;0.75;;;22.30;80.20;;;;;;10346707;28;20553;-65
2022/08/28 15:52:50;;;;;;;1.85;0.57;;;22.20;80.30;;;;;;10355109;28;20041;-62
2022/08/28 15:57:50;;;;;;;2.30;0.90;;;22.20;80.40;;;;;;10348344;28;20036;-64
2022/08/28 16:02:54;;;;;;;1.55;0.70;;;22.20;80.50;;;;;;10347295;28;20048;-63
2022/08/28 16:07:55;;;;;;;1.25;0.60;;;22.20;80.60;;;;;;10351082;28;20437;-64
2022/08/28 16:12:56;;;;;;;1.23;0.68;;;22.10;80.60;;;;;;10363367;28;20485;-63
2022/08/28 16:17:57;;;;;;;1.40;0.80;;;22.10;80.80;;;;;;10331733;28;20053;-62
2022/08/28 16:22:58;;;;;;;1.67;0.68;;;22.10;80.80;;;;;;10309011;28;20046;-67
2022/08/28 16:28:36;;;;;;;2.80;0.88;;;21.80;80.80;;;;;;10305636;28;20362;-65
2022/08/28 16:33:38;;;;;;;2.67;1.08;;;22.00;81.40;;;;;;10315797;28;20062;-65
2022/08/28 16:38:40;;;;;;;3.45;1.00;;;21.90;81.40;;;;;;10304104;28;20030;-65
2022/08/28 16:43:42;;;;;;;2.78;0.90;;;21.90;81.30;;;;;;10309207;28;20189;-65
2022/08/28 16:48:43;;;;;;;1.73;1.00;;;21.90;81.40;;;;;;10350836;23;20054;-65
2022/08/28 16:53:44;;;;;;;1.55;0.70;;;21.80;81.50;;;;;;10320696;28;20045;-65
2022/08/28 16:58:45;;;;;;;4.05;1.10;;;21.80;81.60;;;;;;10319083;28;20394;-65
2022/08/28 17:03:47;;;;;;;1.98;0.98;;;21.80;81.70;;;;;;10327345;28;20041;-65
2022/08/28 17:08:48;;;;;;;2.67;0.90;;;21.80;81.80;;;;;;10326095;28;20343;-65
2022/08/28 17:13:49;;;;;;;1.75;0.90;;;21.80;81.90;;;;;;10322021;28;20165;-65
2022/08/28 17:18:51;;;;;;;2.03;0.90;;;21.80;82.00;;;;;;10326298;28;20084;-66
2022/08/28 17:23:51;;;;;;;3.47;1.08;;;21.80;82.00;;;;;;10317261;28;20539;-64
2022/08/28 17:28:52;;;;;;;2.92;1.17;;;21.50;81.50;;;;;;10323753;28;20083;-64
2022/08/28 17:33:53;;;;;;;3.75;1.10;;;20.80;82.10;;;;;;10316957;28;20041;-63
2022/08/28 17:38:54;;;;;;;2.88;1.10;;;20.40;82.80;;;;;;10324242;28;20057;-62
2022/08/28 17:43:54;;;;;;;1.42;1.05;;;20.20;83.10;;;;;;10321529;28;20362;-63
2022/08/28 17:48:55;;;;;;;3.63;1.40;;;19.90;83.40;;;;;;10305852;28;20052;-63
2022/08/28 17:53:56;;;;;;;3.25;1.23;;;19.70;83.70;;;;;;10319529;28;20512;-62
2022/08/28 17:58:57;;;;;;;3.30;1.40;;;19.60;84.00;;;;;;10315720;28;20460;-62
2022/08/28 18:03:58;;;;;;;3.50;1.20;;;19.50;84.20;;;;;;10315925;28;20213;-63
2022/08/28 18:08:59;;;;;;;5.28;1.55;;;19.50;84.50;;;;;;10323000;28;20340;-62
2022/08/28 18:14:00;;;;;;;2.58;1.23;;;19.30;84.90;;;;;;10322137;28;20049;-62
2022/08/28 18:19:03;;;;;;;4.68;0.90;;;19.40;84.90;;;;;;10318262;28;21306;-62
2022/08/28 18:24:04;;;;;;;3.03;1.20;;;19.40;85.00;;;;;;10329771;28;20084;-62
2022/08/28 18:29:05;;;;;;;4.15;1.13;;;19.40;85.10;;;;;;10322671;28;20032;-63
2022/08/28 18:34:06;;;;;;;3.20;1.17;;;19.20;85.40;;;;;;10327306;28;20045;-63
2022/08/28 18:39:08;;;;;;;2.40;0.90;;;19.20;85.80;;;;;;10327888;28;20037;-64
2022/08/28 18:44:09;;;;;;;2.95;1.45;;;19.40;85.30;;;;;;10320036;28;20052;-65
2022/08/28 18:49:10;;;;;;;3.92;1.30;;;19.60;84.80;;;;;;10321259;28;20045;-64
2022/08/28 18:54:14;;;;;;;1.58;0.82;;;19.80;84.50;;;;;;10322561;28;20951;-64
2022/08/28 18:59:14;;;;;;;2.47;1.10;;;19.90;84.20;;;;;;10423240;22;20053;-64
2022/08/28 19:04:15;;;;;;;4.72;0.93;;;20.10;84.10;;;;;;10456187;28;20054;-67
2022/08/28 19:09:16;;;;;;;2.33;1.23;;;20.20;84.00;;;;;;10459272;28;20043;-64
2022/08/28 19:14:17;;;;;;;2.72;1.20;;;20.20;83.90;;;;;;10454108;28;20039;-63
2022/08/28 19:19:18;;;;;;;1.70;0.90;;;20.30;83.90;;;;;;10455181;28;20025;-62
2022/08/28 19:24:21;;;;;;;2.38;0.73;;;20.30;83.90;;;;;;10440535;28;20094;-64
2022/08/28 19:29:21;;;;;;;3.30;1.40;;;20.30;83.90;;;;;;10449111;28;20025;-63
2022/08/28 19:34:23;;;;;;;2.50;1.00;;;20.30;83.80;;;;;;10453880;28;20036;-62
2022/08/28 19:39:24;;;;;;;1.92;0.75;;;20.30;83.80;;;;;;10449816;28;20016;-63
2022/08/28 19:44:25;;;;;;;3.38;1.00;;;20.40;83.90;;;;;;10448579;28;20027;-62
2022/08/28 19:49:25;;;;;;;1.42;1.13;;;20.30;83.90;;;;;;10454051;28;20040;-62
2022/08/28 19:54:26;;;;;;;1.70;0.95;;;20.30;83.90;;;;;;10453626;28;20442;-63
2022/08/28 19:59:27;;;;;;;1.77;1.05;;;20.30;83.90;;;;;;10447225;28;20056;-62
2022/08/28 20:04:29;;;;;;;2.35;0.90;;;20.30;83.90;;;;;;10448774;28;20036;-70
2022/08/28 20:09:30;;;;;;;3.88;1.20;;;20.30;83.90;;;;;;10435149;28;20009;-63
2022/08/28 20:14:30;;;;;;;2.42;1.10;;;20.30;83.90;;;;;;10418590;28;20040;-63
2022/08/28 20:19:32;;;;;;;3.13;1.10;;;20.30;83.90;;;;;;10430480;28;20033;-62
2022/08/28 20:24:33;;;;;;;3.63;1.20;;;20.30;83.90;;;;;;10437557;28;20104;-62
2022/08/28 20:29:33;;;;;;;2.35;1.13;;;20.30;83.90;;;;;;10444873;28;20037;-62
2022/08/28 20:34:34;;;;;;;1.67;0.90;;;20.20;83.80;;;;;;10446047;28;20042;-63
2022/08/28 20:39:36;;;;;;;3.28;1.20;;;20.20;83.80;;;;;;10446921;28;20522;-63
2022/08/28 20:44:36;;;;;;;1.40;1.00;;;20.20;83.70;;;;;;10451843;28;20106;-63
2022/08/28 20:49:37;;;;;;;1.70;1.08;;;20.20;83.70;;;;;;10453810;28;20594;-62
2022/08/28 20:54:40;;;;;;;2.38;1.15;;;20.10;83.60;;;;;;10445226;28;20094;-63
2022/08/28 20:59:42;;;;;;;2.72;1.10;;;20.10;83.70;;;;;;10444330;28;20678;-62
2022/08/28 21:04:45;;;;;;;1.60;0.80;;;20.10;83.70;;;;;;10445221;28;20083;-62
2022/08/28 21:09:45;;;;;;;2.28;1.38;;;20.10;83.70;;;;;;10454253;28;20113;-62
2022/08/28 21:14:46;;;;;;;2.65;1.20;;;20.10;83.70;;;;;;10443350;28;20029;-62
2022/08/28 21:19:49;;;;;;;2.28;1.10;;;20.00;83.70;;;;;;10441819;28;20021;-62
2022/08/28 21:24:50;;;;;;;2.30;1.10;;;20.00;83.70;;;;;;10452668;28;20032;-62
2022/08/28 21:29:54;;;;;;;2.10;1.05;;;20.00;83.60;;;;;;10443197;28;20013;-63
2022/08/28 21:34:55;;;;;;;2.55;1.15;;;20.00;83.60;;;;;;10438239;28;20529;-61
2022/08/28 21:39:56;;;;;;;2.65;1.17;;;20.00;83.70;;;;;;10445733;28;20023;-61
2022/08/28 21:44:57;;;;;;;3.03;1.02;;;19.90;83.60;;;;;;10447874;28;20389;-62
2022/08/28 21:49:57;;;;;;;3.47;1.35;;;19.90;83.60;;;;;;10455448;28;20121;-61
2022/08/28 21:55:08;;;;;;;2.63;1.20;;;19.90;83.60;;;;;;10450197;28;20048;-61
2022/08/28 22:00:16;;;;;;;1.50;0.90;;;19.90;83.50;;;;;;10452372;28;20491;-61
2022/08/28 22:05:17;;;;;;;2.97;1.20;;;19.80;83.50;;;;;;10453848;28;20477;-61
2022/08/28 22:10:18;;;;;;;2.30;1.10;;;19.80;83.50;;;;;;10457147;28;20102;-61
2022/08/28 22:15:18;;;;;;;5.45;1.33;;;19.80;83.50;;;;;;10448899;28;20496;-62
2022/08/28 22:20:19;;;;;;;2.03;1.00;;;19.80;83.50;;;;;;10498142;22;20044;-62
2022/08/28 22:25:20;;;;;;;2.00;1.30;;;19.80;83.50;;;;;;10523447;28;20063;-61
2022/08/28 22:30:21;;;;;;;1.90;1.05;;;19.70;83.40;;;;;;10525705;28;20033;-62
2022/08/28 22:35:22;;;;;;;1.30;1.00;;;19.70;83.40;;;;;;10523687;28;20083;-62
2022/08/28 22:40:23;;;;;;;1.48;1.00;;;19.70;83.40;;;;;;10530360;28;20461;-61
2022/08/28 22:45:24;;;;;;;2.60;1.88;;;19.70;83.40;;;;;;10536340;28;20038;-61
2022/08/28 22:50:25;;;;;;;2.88;1.15;;;19.70;83.30;;;;;;10527682;28;20028;-62
2022/08/28 22:55:26;;;;;;;1.90;1.08;;;19.70;83.30;;;;;;10523532;28;20047;-62
2022/08/28 23:00:29;;;;;;;3.85;1.00;;;19.70;83.20;;;;;;10527832;28;20028;-62
2022/08/28 23:05:31;;;;;;;1.42;1.20;;;19.70;83.20;;;;;;10521898;28;20033;-61
2022/08/28 23:10:31;;;;;;;2.28;1.10;;;19.60;83.20;;;;;;10522521;28;20035;-62
2022/08/28 23:15:33;;;;;;;2.20;1.20;;;19.60;83.10;;;;;;10525238;28;20386;-62
2022/08/28 23:20:34;;;;;;;3.97;1.40;;;19.60;83.20;;;;;;10523571;28;20101;-61
2022/08/28 23:25:35;;;;;;;4.28;1.48;;;19.60;83.10;;;;;;10529665;28;20526;-62
2022/08/28 23:30:37;;;;;;;2.30;1.23;;;19.60;83.20;;;;;;10525604;28;20020;-62
2022/08/28 23:35:38;;;;;;;3.90;1.35;;;19.60;83.20;;;;;;10521631;28;20044;-62
2022/08/28 23:40:39;;;;;;;2.65;1.50;;;19.60;83.20;;;;;;10525324;28;20046;-61
2022/08/28 23:45:40;;;;;;;2.90;1.35;;;19.60;83.20;;;;;;10530035;28;20384;-62
2022/08/28 23:50:41;;;;;;;2.50;1.30;;;19.50;83.10;;;;;;10540142;28;20547;-62
2022/08/28 23:55:42;;;;;;;2.58;1.35;;;19.50;83.10;;;;;;10522850;28;20134;-62
